sensor_id;sensor_type;location;lat;lon;timestamp;P1;P2;P0
69746;PMS7003;57018;50.278;19.134;2023-02-18T11:06:30;7.00;4.67;4.00
69746;PMS7003;57018;50.278;19.134;2023-02-18T11:09:12;6.00;6.00;4.00
69746;PMS7003;57018;50.278;19.134;2023-02-18T11:11:59;9.00;6.00;5.33
69746;PMS7003;57018;50.278;19.134;2023-02-18T11:14:39;8.00;7.00;5.00
69746;PMS7003;57018;50.278;19.134;2023-02-18T11:17:19;3.00;3.00;2.00
69746;PMS7003;57018;50.278;19.134;2023-02-18T11:19:54;4.00;4.00;3.00
69746;PMS7003;57018;50.278;19.134;2023-02-18T11:22:27;3.00;3.00;2.50
69746;PMS7003;57018;50.278;19.134;2023-02-18T11:24:59;6.00;5.25;4.00
69746;PMS7003;57018;50.278;19.134;2023-02-18T11:27:45;7.75;5.00;3.00
69746;PMS7003;57018;50.278;19.134;2023-02-18T11:30:20;4.25;4.25;3.00
69746;PMS7003;57018;50.278;19.134;2023-02-18T11:32:54;8.00;7.25;5.00
69746;PMS7003;57018;50.278;19.134;2023-02-18T11:35:27;10.33;10.00;6.00
69746;PMS7003;57018;50.278;19.134;2023-02-18T11:38:01;11.00;11.00;7.00
69746;PMS7003;57018;50.278;19.134;2023-02-18T11:40:41;11.00;8.00;5.00
69746;PMS7003;57018;50.278;19.134;2023-02-18T11:43:20;13.00;13.00;7.00
69746;PMS7003;57018;50.278;19.134;2023-02-18T11:46:07;10.00;8.00;5.00
69746;PMS7003;57018;50.278;19.134;2023-02-18T11:48:38;8.00;5.00;4.00
69746;PMS7003;57018;50.278;19.134;2023-02-18T11:51:13;8.00;6.00;4.00
69746;PMS7003;57018;50.278;19.134;2023-02-18T11:53:59;13.75;13.50;10.75
69746;PMS7003;57018;50.278;19.134;2023-02-18T11:56:31;12.25;12.25;7.25
69746;PMS7003;57018;50.278;19.134;2023-02-18T11:59:03;16.67;13.33;9.67
69746;PMS7003;57018;50.278;19.134;2023-02-18T12:01:37;14.00;11.00;7.00
69746;PMS7003;57018;50.278;19.134;2023-02-18T12:04:13;9.00;9.00;7.00
69746;PMS7003;57018;50.278;19.134;2023-02-18T12:06:51;16.00;13.33;7.67
69746;PMS7003;57018;50.278;19.134;2023-02-18T12:09:28;19.75;14.00;9.25
69746;PMS7003;57018;50.278;19.134;2023-02-18T12:12:04;11.33;9.67;8.67
69746;PMS7003;57018;50.278;19.134;2023-02-18T12:14:40;15.00;11.67;7.00
69746;PMS7003;57018;50.278;19.134;2023-02-18T12:20:03;20.33;17.67;11.33
69746;PMS7003;57018;50.278;19.134;2023-02-18T12:22:52;27.75;23.25;15.50
69746;PMS7003;57018;50.278;19.134;2023-02-18T12:25:33;25.50;23.50;16.00
69746;PMS7003;57018;50.278;19.134;2023-02-18T12:28:21;22.00;22.00;16.00
69746;PMS7003;57018;50.278;19.134;2023-02-18T12:34:01;24.00;24.00;18.00
69746;PMS7003;57018;50.278;19.134;2023-02-18T12:36:48;25.75;23.75;17.50
69746;PMS7003;57018;50.278;19.134;2023-02-18T12:39:29;22.33;20.00;13.67
69746;PMS7003;57018;50.278;19.134;2023-02-18T12:42:16;29.00;29.00;19.00
69746;PMS7003;57018;50.278;19.134;2023-02-18T12:45:13;27.33;24.67;18.00
69746;PMS7003;57018;50.278;19.134;2023-02-18T12:48:17;51.00;41.00;26.00
69746;PMS7003;57018;50.278;19.134;2023-02-18T12:51:03;29.33;25.33;17.33
69746;PMS7003;57018;50.278;19.134;2023-02-18T12:53:51;29.50;27.75;19.75
69746;PMS7003;57018;50.278;19.134;2023-02-18T13:02:45;41.00;37.00;24.50
69746;PMS7003;57018;50.278;19.134;2023-02-18T13:05:30;23.00;20.00;15.67
69746;PMS7003;57018;50.278;19.134;2023-02-18T13:08:10;55.50;44.00;27.50
69746;PMS7003;57018;50.278;19.134;2023-02-18T13:10:55;40.00;36.50;24.50
69746;PMS7003;57018;50.278;19.134;2023-02-18T13:13:39;52.50;39.50;28.50
69746;PMS7003;57018;50.278;19.134;2023-02-18T13:16:16;37.00;34.00;25.00
69746;PMS7003;57018;50.278;19.134;2023-02-18T13:18:53;41.00;38.00;25.50
69746;PMS7003;57018;50.278;19.134;2023-02-18T13:21:29;39.00;34.00;23.50
69746;PMS7003;57018;50.278;19.134;2023-02-18T13:24:00;42.33;36.00;24.00
69746;PMS7003;57018;50.278;19.134;2023-02-18T13:26:33;51.67;38.33;25.33
69746;PMS7003;57018;50.278;19.134;2023-02-18T13:29:09;51.50;39.00;26.00
69746;PMS7003;57018;50.278;19.134;2023-02-18T13:31:54;40.50;35.00;22.50
69746;PMS7003;57018;50.278;19.134;2023-02-18T13:34:35;44.00;38.00;23.00
69746;PMS7003;57018;50.278;19.134;2023-02-18T13:37:14;44.00;36.00;25.00
69746;PMS7003;57018;50.278;19.134;2023-02-18T13:39:50;40.67;35.67;25.33
69746;PMS7003;57018;50.278;19.134;2023-02-18T13:42:25;37.00;34.00;23.00
69746;PMS7003;57018;50.278;19.134;2023-02-18T13:45:03;39.00;35.50;24.50
69746;PMS7003;57018;50.278;19.134;2023-02-18T13:47:47;31.00;28.00;19.00
69746;PMS7003;57018;50.278;19.134;2023-02-18T13:50:29;33.00;30.00;21.00
69746;PMS7003;57018;50.278;19.134;2023-02-18T13:53:24;35.00;30.00;22.00
69746;PMS7003;57018;50.278;19.134;2023-02-18T13:56:01;53.67;42.33;26.67
69746;PMS7003;57018;50.278;19.134;2023-02-18T13:58:37;55.00;44.50;28.50
69746;PMS7003;57018;50.278;19.134;2023-02-18T14:01:16;50.00;42.50;26.50
69746;PMS7003;57018;50.278;19.134;2023-02-18T14:03:52;52.00;43.50;28.00
69746;PMS7003;57018;50.278;19.134;2023-02-18T14:06:24;47.00;39.50;27.50
69746;PMS7003;57018;50.278;19.134;2023-02-18T14:12:14;53.33;44.00;29.00
69746;PMS7003;57018;50.278;19.134;2023-02-18T14:15:02;51.00;43.00;27.00
69746;PMS7003;57018;50.278;19.134;2023-02-18T14:17:49;54.00;45.00;27.00
69746;PMS7003;57018;50.278;19.134;2023-02-18T14:20:44;44.00;38.50;27.50
69746;PMS7003;57018;50.278;19.134;2023-02-18T14:26:08;46.75;38.50;25.25
69746;PMS7003;57018;50.278;19.134;2023-02-18T14:28:51;48.00;41.00;26.00
69746;PMS7003;57018;50.278;19.134;2023-02-18T14:31:26;53.00;43.50;28.00
69746;PMS7003;57018;50.278;19.134;2023-02-18T14:34:06;42.00;37.00;23.00
69746;PMS7003;57018;50.278;19.134;2023-02-18T14:36:48;58.00;44.00;28.00
69746;PMS7003;57018;50.278;19.134;2023-02-18T14:39:30;44.50;37.00;20.50
69746;PMS7003;57018;50.278;19.134;2023-02-18T14:42:13;44.33;38.33;24.67
69746;PMS7003;57018;50.278;19.134;2023-02-18T14:45:00;48.00;40.00;25.50
69746;PMS7003;57018;50.278;19.134;2023-02-18T14:47:59;47.50;39.50;25.25
69746;PMS7003;57018;50.278;19.134;2023-02-18T14:50:40;37.00;35.00;23.00
69746;PMS7003;57018;50.278;19.134;2023-02-18T14:53:13;48.00;38.00;22.00
69746;PMS7003;57018;50.278;19.134;2023-02-18T14:55:46;48.67;41.33;26.33
69746;PMS7003;57018;50.278;19.134;2023-02-18T14:58:23;52.50;44.50;28.00
69746;PMS7003;57018;50.278;19.134;2023-02-18T15:00:58;37.33;33.00;22.67
69746;PMS7003;57018;50.278;19.134;2023-02-18T15:03:35;35.00;33.00;22.00
69746;PMS7003;57018;50.278;19.134;2023-02-18T15:06:21;56.50;47.00;28.00
69746;PMS7003;57018;50.278;19.134;2023-02-18T15:08:55;66.00;51.50;34.50
69746;PMS7003;57018;50.278;19.134;2023-02-18T15:11:26;81.50;62.50;39.00
69746;PMS7003;57018;50.278;19.134;2023-02-18T15:14:07;68.33;51.00;32.33
69746;PMS7003;57018;50.278;19.134;2023-02-18T15:16:41;73.67;54.33;36.00
69746;PMS7003;57018;50.278;19.134;2023-02-18T15:19:14;83.50;66.00;40.00
69746;PMS7003;57018;50.278;19.134;2023-02-18T15:21:47;66.50;52.75;36.00
69746;PMS7003;57018;50.278;19.134;2023-02-18T15:24:22;71.50;56.50;36.00
69746;PMS7003;57018;50.278;19.134;2023-02-18T15:26:58;67.00;51.33;32.33
69746;PMS7003;57018;50.278;19.134;2023-02-18T15:29:32;55.25;46.25;30.25
69746;PMS7003;57018;50.278;19.134;2023-02-18T15:32:11;63.00;47.00;29.50
69746;PMS7003;57018;50.278;19.134;2023-02-18T15:34:44;60.00;48.00;30.00
69746;PMS7003;57018;50.278;19.134;2023-02-18T15:37:16;56.33;45.00;29.33
69746;PMS7003;57018;50.278;19.134;2023-02-18T15:39:46;60.50;47.00;30.00
69746;PMS7003;57018;50.278;19.134;2023-02-18T15:42:18;59.00;47.00;28.00
69746;PMS7003;57018;50.278;19.134;2023-02-18T15:44:54;66.33;53.67;33.33
69746;PMS7003;57018;50.278;19.134;2023-02-18T15:47:25;67.00;52.00;34.00
69746;PMS7003;57018;50.278;19.134;2023-02-18T15:49:56;69.50;53.00;33.00
69746;PMS7003;57018;50.278;19.134;2023-02-18T15:52:29;63.00;50.00;35.00
69746;PMS7003;57018;50.278;19.134;2023-02-18T15:55:02;70.50;52.50;34.50
69746;PMS7003;57018;50.278;19.134;2023-02-18T15:57:38;69.33;53.00;34.67
69746;PMS7003;57018;50.278;19.134;2023-02-18T16:00:13;60.00;49.00;32.00
69746;PMS7003;57018;50.278;19.134;2023-02-18T16:02:54;60.00;47.50;31.50
69746;PMS7003;57018;50.278;19.134;2023-02-18T16:05:29;67.67;53.33;35.33
69746;PMS7003;57018;50.278;19.134;2023-02-18T16:08:05;63.50;51.50;35.00
69746;PMS7003;57018;50.278;19.134;2023-02-18T16:10:47;69.75;54.75;34.75
69746;PMS7003;57018;50.278;19.134;2023-02-18T16:13:21;65.00;52.50;34.00
69746;PMS7003;57018;50.278;19.134;2023-02-18T16:15:52;71.00;55.00;36.33
69746;PMS7003;57018;50.278;19.134;2023-02-18T16:18:26;65.00;52.50;33.00
69746;PMS7003;57018;50.278;19.134;2023-02-18T16:21:02;63.00;50.33;33.00
69746;PMS7003;57018;50.278;19.134;2023-02-18T16:23:52;71.67;55.00;35.33
69746;PMS7003;57018;50.278;19.134;2023-02-18T16:26:27;64.50;52.50;33.50
69746;PMS7003;57018;50.278;19.134;2023-02-18T16:29:04;59.50;48.00;30.50
69746;PMS7003;57018;50.278;19.134;2023-02-18T16:31:40;58.00;45.67;30.00
69746;PMS7003;57018;50.278;19.134;2023-02-18T16:34:10;48.00;41.00;27.00
69746;PMS7003;57018;50.278;19.134;2023-02-18T16:36:40;59.00;44.00;30.00
69746;PMS7003;57018;50.278;19.134;2023-02-18T16:39:24;64.00;51.00;32.00
69746;PMS7003;57018;50.278;19.134;2023-02-18T16:41:55;62.67;49.33;32.00
69746;PMS7003;57018;50.278;19.134;2023-02-18T16:44:25;60.25;48.00;29.00
69746;PMS7003;57018;50.278;19.134;2023-02-18T16:46:55;52.00;43.00;28.67
69746;PMS7003;57018;50.278;19.134;2023-02-18T16:49:25;61.00;50.00;32.00
69746;PMS7003;57018;50.278;19.134;2023-02-18T16:51:56;59.00;46.00;28.00
69746;PMS7003;57018;50.278;19.134;2023-02-18T16:54:28;54.50;46.50;29.50
69746;PMS7003;57018;50.278;19.134;2023-02-18T16:56:58;53.67;43.33;27.33
69746;PMS7003;57018;50.278;19.134;2023-02-18T16:59:28;55.33;43.33;27.00
69746;PMS7003;57018;50.278;19.134;2023-02-18T17:01:57;52.00;41.50;27.50
69746;PMS7003;57018;50.278;19.134;2023-02-18T17:04:27;51.00;40.50;27.00
69746;PMS7003;57018;50.278;19.134;2023-02-18T17:06:57;48.00;40.67;26.00
69746;PMS7003;57018;50.278;19.134;2023-02-18T17:09:29;52.00;41.00;26.00
69746;PMS7003;57018;50.278;19.134;2023-02-18T17:11:59;53.50;41.50;25.50
69746;PMS7003;57018;50.278;19.134;2023-02-18T17:14:29;50.00;41.00;27.00
69746;PMS7003;57018;50.278;19.134;2023-02-18T17:16:59;47.00;38.00;25.50
69746;PMS7003;57018;50.278;19.134;2023-02-18T17:19:29;44.00;39.00;26.00
69746;PMS7003;57018;50.278;19.134;2023-02-18T17:21:59;43.00;35.00;19.00
69746;PMS7003;57018;50.278;19.134;2023-02-18T17:24:28;37.25;33.75;22.00
69746;PMS7003;57018;50.278;19.134;2023-02-18T17:26:58;41.00;36.00;22.00
69746;PMS7003;57018;50.278;19.134;2023-02-18T17:29:28;42.67;38.33;22.00
69746;PMS7003;57018;50.278;19.134;2023-02-18T17:31:58;54.50;45.00;29.00
69746;PMS7003;57018;50.278;19.134;2023-02-18T17:34:29;30.50;27.00;17.00
69746;PMS7003;57018;50.278;19.134;2023-02-18T17:37:01;36.00;31.00;19.50
69746;PMS7003;57018;50.278;19.134;2023-02-18T17:39:31;26.50;23.50;20.00
69746;PMS7003;57018;50.278;19.134;2023-02-18T17:42:01;34.50;30.50;18.50
69746;PMS7003;57018;50.278;19.134;2023-02-18T17:44:31;31.50;26.00;19.00
69746;PMS7003;57018;50.278;19.134;2023-02-18T17:47:02;29.00;27.00;18.00
69746;PMS7003;57018;50.278;19.134;2023-02-18T17:49:31;26.67;25.67;17.67
69746;PMS7003;57018;50.278;19.134;2023-02-18T17:52:01;22.75;22.50;16.75
69746;PMS7003;57018;50.278;19.134;2023-02-18T17:54:32;21.67;20.33;14.00
69746;PMS7003;57018;50.278;19.134;2023-02-18T17:57:01;31.00;27.50;19.50
69746;PMS7003;57018;50.278;19.134;2023-02-18T17:59:31;18.50;16.50;10.00
69746;PMS7003;57018;50.278;19.134;2023-02-18T18:02:01;25.50;23.25;14.00
69746;PMS7003;57018;50.278;19.134;2023-02-18T18:04:37;28.00;24.00;14.00
69746;PMS7003;57018;50.278;19.134;2023-02-18T18:07:07;20.00;20.00;13.50
69746;PMS7003;57018;50.278;19.134;2023-02-18T18:09:37;27.00;26.00;15.00
69746;PMS7003;57018;50.278;19.134;2023-02-18T18:12:07;27.75;25.75;19.50
69746;PMS7003;57018;50.278;19.134;2023-02-18T18:14:40;32.00;27.00;18.00
69746;PMS7003;57018;50.278;19.134;2023-02-18T18:17:11;32.25;29.75;20.00
69746;PMS7003;57018;50.278;19.134;2023-02-18T18:19:43;32.00;28.00;19.00
69746;PMS7003;57018;50.278;19.134;2023-02-18T18:22:13;31.50;26.00;14.00
69746;PMS7003;57018;50.278;19.134;2023-02-18T18:24:43;23.00;22.00;13.00
69746;PMS7003;57018;50.278;19.134;2023-02-18T18:27:13;33.00;29.00;16.00
69746;PMS7003;57018;50.278;19.134;2023-02-18T18:29:43;35.00;31.50;19.00
69746;PMS7003;57018;50.278;19.134;2023-02-18T18:32:12;30.00;22.00;16.00
69746;PMS7003;57018;50.278;19.134;2023-02-18T18:34:42;37.00;33.00;22.00
69746;PMS7003;57018;50.278;19.134;2023-02-18T18:37:13;26.67;22.67;17.00
69746;PMS7003;57018;50.278;19.134;2023-02-18T18:39:43;34.50;32.00;22.00
69746;PMS7003;57018;50.278;19.134;2023-02-18T18:42:13;31.00;27.00;17.00
69746;PMS7003;57018;50.278;19.134;2023-02-18T18:44:43;30.33;24.00;17.00
69746;PMS7003;57018;50.278;19.134;2023-02-18T18:47:13;29.00;27.00;19.00
69746;PMS7003;57018;50.278;19.134;2023-02-18T18:49:43;26.00;23.75;16.00
69746;PMS7003;57018;50.278;19.134;2023-02-18T18:52:14;25.67;24.33;17.67
69746;PMS7003;57018;50.278;19.134;2023-02-18T18:54:45;30.25;24.00;17.00
69746;PMS7003;57018;50.278;19.134;2023-02-18T18:57:15;27.00;27.00;19.00
69746;PMS7003;57018;50.278;19.134;2023-02-18T18:59:45;19.00;18.00;12.00
69746;PMS7003;57018;50.278;19.134;2023-02-18T19:02:15;27.00;21.00;16.00
69746;PMS7003;57018;50.278;19.134;2023-02-18T19:04:45;23.00;22.00;16.00
69746;PMS7003;57018;50.278;19.134;2023-02-18T19:07:15;24.00;24.00;17.50
69746;PMS7003;57018;50.278;19.134;2023-02-18T19:09:45;24.50;22.00;14.00
69746;PMS7003;57018;50.278;19.134;2023-02-18T19:12:15;22.00;21.00;14.50
69746;PMS7003;57018;50.278;19.134;2023-02-18T19:14:44;26.33;25.00;17.33
69746;PMS7003;57018;50.278;19.134;2023-02-18T19:17:14;21.33;20.67;13.00
69746;PMS7003;57018;50.278;19.134;2023-02-18T19:19:44;23.25;23.00;16.25
69746;PMS7003;57018;50.278;19.134;2023-02-18T19:22:14;19.00;18.50;14.50
69746;PMS7003;57018;50.278;19.134;2023-02-18T19:24:44;23.50;23.50;15.00
69746;PMS7003;57018;50.278;19.134;2023-02-18T19:27:14;18.00;16.50;13.00
69746;PMS7003;57018;50.278;19.134;2023-02-18T19:29:44;21.00;20.33;15.00
69746;PMS7003;57018;50.278;19.134;2023-02-18T19:32:16;20.50;19.00;14.50
69746;PMS7003;57018;50.278;19.134;2023-02-18T19:34:46;23.25;22.00;15.75
69746;PMS7003;57018;50.278;19.134;2023-02-18T19:37:15;25.50;24.00;16.50
69746;PMS7003;57018;50.278;19.134;2023-02-18T19:39:45;22.00;22.00;18.00
69746;PMS7003;57018;50.278;19.134;2023-02-18T19:42:15;36.00;32.50;22.00
69746;PMS7003;57018;50.278;19.134;2023-02-18T19:44:45;10.00;10.00;8.00
69746;PMS7003;57018;50.278;19.134;2023-02-18T19:47:15;10.00;9.67;6.67
69746;PMS7003;57018;50.278;19.134;2023-02-18T19:49:45;12.33;12.33;7.67
69746;PMS7003;57018;50.278;19.134;2023-02-18T19:52:14;14.00;13.50;7.75
69746;PMS7003;57018;50.278;19.134;2023-02-18T19:54:45;10.75;10.25;6.75
69746;PMS7003;57018;50.278;19.134;2023-02-18T19:57:15;15.00;14.00;11.00
69746;PMS7003;57018;50.278;19.134;2023-02-18T19:59:45;14.33;14.33;9.67
69746;PMS7003;57018;50.278;19.134;2023-02-18T20:02:15;10.50;8.50;6.50
69746;PMS7003;57018;50.278;19.134;2023-02-18T20:04:47;13.50;12.50;10.00
69746;PMS7003;57018;50.278;19.134;2023-02-18T20:07:18;10.25;9.25;6.00
69746;PMS7003;57018;50.278;19.134;2023-02-18T20:09:51;17.00;16.00;10.00
69746;PMS7003;57018;50.278;19.134;2023-02-18T20:12:21;12.67;12.33;7.67
69746;PMS7003;57018;50.278;19.134;2023-02-18T20:14:52;10.33;10.33;7.00
69746;PMS7003;57018;50.278;19.134;2023-02-18T20:17:22;13.67;11.67;9.00
69746;PMS7003;57018;50.278;19.134;2023-02-18T20:19:51;13.00;11.00;6.00
69746;PMS7003;57018;50.278;19.134;2023-02-18T20:22:21;10.75;10.75;7.00
69746;PMS7003;57018;50.278;19.134;2023-02-18T20:24:51;13.50;12.50;10.00
69746;PMS7003;57018;50.278;19.134;2023-02-18T20:27:21;15.50;13.00;10.00
69746;PMS7003;57018;50.278;19.134;2023-02-18T20:29:51;14.00;12.00;9.00
69746;PMS7003;57018;50.278;19.134;2023-02-18T20:32:21;19.00;19.00;12.00
69746;PMS7003;57018;50.278;19.134;2023-02-18T20:34:50;12.50;10.50;6.00
69746;PMS7003;57018;50.278;19.134;2023-02-18T20:37:22;8.00;8.00;5.50
69746;PMS7003;57018;50.278;19.134;2023-02-18T20:39:52;14.67;14.67;9.67
69746;PMS7003;57018;50.278;19.134;2023-02-18T20:42:22;14.50;12.00;8.50
69746;PMS7003;57018;50.278;19.134;2023-02-18T20:44:52;11.00;11.00;8.00
69746;PMS7003;57018;50.278;19.134;2023-02-18T20:47:22;16.00;13.50;10.50
69746;PMS7003;57018;50.278;19.134;2023-02-18T20:49:52;10.00;9.00;7.00
69746;PMS7003;57018;50.278;19.134;2023-02-18T20:52:22;5.50;5.50;4.00
69746;PMS7003;57018;50.278;19.134;2023-02-18T20:54:52;4.00;4.00;3.00
69746;PMS7003;57018;50.278;19.134;2023-02-18T20:57:21;8.00;4.00;3.00
69746;PMS7003;57018;50.278;19.134;2023-02-18T20:59:51;7.00;4.00;3.00
69746;PMS7003;57018;50.278;19.134;2023-02-18T21:02:21;3.50;3.00;2.50
69746;PMS7003;57018;50.278;19.134;2023-02-18T21:04:51;2.00;2.00;1.50
69746;PMS7003;57018;50.278;19.134;2023-02-18T21:07:21;4.00;4.00;2.00
69746;PMS7003;57018;50.278;19.134;2023-02-18T21:09:51;2.67;2.67;2.00
69746;PMS7003;57018;50.278;19.134;2023-02-18T21:12:21;4.00;3.67;3.00
69746;PMS7003;57018;50.278;19.134;2023-02-18T21:14:51;4.00;4.00;3.00
69746;PMS7003;57018;50.278;19.134;2023-02-18T21:17:21;4.00;4.00;3.00
69746;PMS7003;57018;50.278;19.134;2023-02-18T21:19:52;4.00;3.50;2.00
69746;PMS7003;57018;50.278;19.134;2023-02-18T21:22:22;3.00;3.00;3.00
69746;PMS7003;57018;50.278;19.134;2023-02-18T21:24:52;9.00;8.75;7.25
69746;PMS7003;57018;50.278;19.134;2023-02-18T21:27:22;8.50;7.00;4.00
69746;PMS7003;57018;50.278;19.134;2023-02-18T21:29:52;7.00;7.00;4.00
69746;PMS7003;57018;50.278;19.134;2023-02-18T21:32:25;6.00;4.00;3.00
69746;PMS7003;57018;50.278;19.134;2023-02-18T21:34:56;7.50;7.00;5.50
69746;PMS7003;57018;50.278;19.134;2023-02-18T21:37:28;5.00;5.00;3.00
69746;PMS7003;57018;50.278;19.134;2023-02-18T21:40:00;2.00;2.00;1.50
69746;PMS7003;57018;50.278;19.134;2023-02-18T21:42:31;6.00;4.00;3.00
69746;PMS7003;57018;50.278;19.134;2023-02-18T21:45:01;5.00;5.00;3.50
69746;PMS7003;57018;50.278;19.134;2023-02-18T21:47:35;5.67;5.67;4.00
69746;PMS7003;57018;50.278;19.134;2023-02-18T21:50:07;8.00;7.00;4.00
69746;PMS7003;57018;50.278;19.134;2023-02-18T21:52:38;7.00;6.75;4.00
69746;PMS7003;57018;50.278;19.134;2023-02-18T21:55:09;7.00;6.75;4.00
69746;PMS7003;57018;50.278;19.134;2023-02-18T21:57:39;10.00;8.00;3.67
69746;PMS7003;57018;50.278;19.134;2023-02-18T22:00:10;8.00;5.50;3.00
69746;PMS7003;57018;50.278;19.134;2023-02-18T22:02:43;7.50;7.25;3.25
69746;PMS7003;57018;50.278;19.134;2023-02-18T22:05:13;11.33;7.33;5.33
69746;PMS7003;57018;50.278;19.134;2023-02-18T22:07:43;8.00;7.67;4.00
69746;PMS7003;57018;50.278;19.134;2023-02-18T22:10:13;3.00;3.00;2.00
69746;PMS7003;57018;50.278;19.134;2023-02-18T22:12:43;5.50;5.50;3.50
69746;PMS7003;57018;50.278;19.134;2023-02-18T22:15:17;3.00;3.00;3.00
69746;PMS7003;57018;50.278;19.134;2023-02-18T22:17:49;4.00;3.00;2.50
69746;PMS7003;57018;50.278;19.134;2023-02-18T22:20:23;3.00;1.67;1.67
69746;PMS7003;57018;50.278;19.134;2023-02-18T22:22:54;5.00;5.00;3.00
69746;PMS7003;57018;50.278;19.134;2023-02-18T22:25:25;7.50;7.50;5.00
69746;PMS7003;57018;50.278;19.134;2023-02-18T22:27:56;5.67;4.67;3.00
69746;PMS7003;57018;50.278;19.134;2023-02-18T22:30:26;10.00;10.00;5.00
69746;PMS7003;57018;50.278;19.134;2023-02-18T22:32:56;15.00;14.00;9.00
69746;PMS7003;57018;50.278;19.134;2023-02-18T22:35:29;17.33;17.33;14.00
69746;PMS7003;57018;50.278;19.134;2023-02-18T22:38:02;18.00;17.00;15.00
69746;PMS7003;57018;50.278;19.134;2023-02-18T22:40:33;21.00;20.00;15.50
69746;PMS7003;57018;50.278;19.134;2023-02-18T22:43:03;12.00;10.00;7.00
69746;PMS7003;57018;50.278;19.134;2023-02-18T22:45:37;18.33;15.33;10.33
69746;PMS7003;57018;50.278;19.134;2023-02-18T22:48:07;9.00;9.00;6.33
69746;PMS7003;57018;50.278;19.134;2023-02-18T22:50:37;18.50;16.00;13.00
69746;PMS7003;57018;50.278;19.134;2023-02-18T22:53:07;33.00;30.00;20.00
69746;PMS7003;57018;50.278;19.134;2023-02-18T22:55:37;33.25;28.00;18.00
69746;PMS7003;57018;50.278;19.134;2023-02-18T22:58:07;31.00;29.00;21.50
69746;PMS7003;57018;50.278;19.134;2023-02-18T23:00:37;28.00;27.00;17.00
69746;PMS7003;57018;50.278;19.134;2023-02-18T23:03:07;21.50;17.00;13.50
69746;PMS7003;57018;50.278;19.134;2023-02-18T23:05:37;26.00;19.50;14.00
69746;PMS7003;57018;50.278;19.134;2023-02-18T23:08:06;26.67;24.00;16.00
69746;PMS7003;57018;50.278;19.134;2023-02-18T23:10:36;27.00;23.75;16.75
69746;PMS7003;57018;50.278;19.134;2023-02-18T23:13:06;35.00;32.67;22.33
69746;PMS7003;57018;50.278;19.134;2023-02-18T23:15:36;45.00;37.50;24.75
69746;PMS7003;57018;50.278;19.134;2023-02-18T23:18:06;26.00;24.67;17.33
69746;PMS7003;57018;50.278;19.134;2023-02-18T23:20:36;24.33;21.00;14.00
69746;PMS7003;57018;50.278;19.134;2023-02-18T23:23:23;24.50;22.00;17.00
69746;PMS7003;57018;50.278;19.134;2023-02-18T23:25:53;32.33;32.33;19.33
69746;PMS7003;57018;50.278;19.134;2023-02-18T23:28:28;20.00;19.00;11.00
69746;PMS7003;57018;50.278;19.134;2023-02-18T23:31:13;16.00;14.00;9.00
69746;PMS7003;57018;50.278;19.134;2023-02-18T23:33:44;15.00;14.33;9.00
69746;PMS7003;57018;50.278;19.134;2023-02-18T23:36:17;15.50;15.50;9.50
69746;PMS7003;57018;50.278;19.134;2023-02-18T23:38:49;19.50;19.50;10.50
69746;PMS7003;57018;50.278;19.134;2023-02-18T23:41:20;18.33;17.33;13.00
69746;PMS7003;57018;50.278;19.134;2023-02-18T23:43:51;32.00;27.00;19.00
69746;PMS7003;57018;50.278;19.134;2023-02-18T23:46:22;32.00;29.67;21.67
69746;PMS7003;57018;50.278;19.134;2023-02-18T23:48:53;37.67;31.67;23.00
69746;PMS7003;57018;50.278;19.134;2023-02-18T23:51:22;34.50;27.50;18.50
69746;PMS7003;57018;50.278;19.134;2023-02-18T23:53:52;37.33;30.67;21.33
69746;PMS7003;57018;50.278;19.134;2023-02-18T23:56:23;27.00;27.00;20.00
69746;PMS7003;57018;50.278;19.134;2023-02-18T23:58:54;36.00;33.00;20.00
